Time;durP1;ratioP1;P1;durP2;ratioP2;P2;SDS_P1;SDS_P2;PMS_P1;PMS_P2;Temp;Humidity;BMP_temperature;BMP_pressure;BME280_temperature;BME280_humidity;BME280_pressure;Samples;Min_cycle;Max_cycle;Signal;HPM_P1;HPM_P2
2021/09/10 00:02:58;;;;;;;15.63;8.93;;;;;;;;;;6144689;28;20666;-69
2021/09/10 00:05:59;;;;;;;13.70;8.90;;;;;;;;;;6155442;28;20407;-68
2021/09/10 00:09:01;;;;;;;13.00;9.20;;;;;;;;;;6162919;28;20183;-68
2021/09/10 00:12:03;;;;;;;13.63;9.25;;;;;;;;;;6156616;28;20133;-68
2021/09/10 00:15:07;;;;;;;13.32;9.43;;;;;;;;;;6162342;28;20094;-68
2021/09/10 00:18:09;;;;;;;12.48;8.40;;;;;;;;;;6152371;28;20050;-68
2021/09/10 00:21:10;;;;;;;15.13;9.20;;;;;;;;;;6151830;28;20078;-68
2021/09/10 00:24:12;;;;;;;14.88;9.25;;;;;;;;;;6161542;28;20117;-68
2021/09/10 00:27:14;;;;;;;10.73;8.65;;;;;;;;;;6159376;28;20185;-68
2021/09/10 00:30:17;;;;;;;20.10;9.45;;;;;;;;;;6160750;28;20154;-69
2021/09/10 00:33:18;;;;;;;12.57;8.65;;;;;;;;;;6158021;28;20183;-68
2021/09/10 00:36:20;;;;;;;11.88;8.27;;;;;;;;;;6155614;28;20047;-68
2021/09/10 00:39:22;;;;;;;16.83;9.50;;;;;;;;;;6158158;28;20450;-68
2021/09/10 00:42:24;;;;;;;14.05;8.63;;;;;;;;;;6152541;28;20097;-68
2021/09/10 00:45:27;;;;;;;12.55;9.02;;;;;;;;;;6158497;28;20070;-69
2021/09/10 00:48:29;;;;;;;11.52;8.82;;;;;;;;;;6159142;28;20551;-68
2021/09/10 00:51:30;;;;;;;10.60;8.73;;;;;;;;;;6153887;28;20118;-69
2021/09/10 00:54:32;;;;;;;11.65;8.88;;;;;;;;;;6165817;28;20122;-70
2021/09/10 00:57:33;;;;;;;13.60;9.68;;;;;;;;;;6152313;28;22133;-70
2021/09/10 01:00:36;;;;;;;14.77;9.30;;;;;;;;;;6152715;28;20129;-69
2021/09/10 01:03:39;;;;;;;14.18;8.90;;;;;;;;;;6159210;28;20058;-68
2021/09/10 01:06:40;;;;;;;16.80;9.95;;;;;;;;;;6150001;28;20046;-69
2021/09/10 01:09:42;;;;;;;11.85;8.30;;;;;;;;;;6159549;28;20066;-67
2021/09/10 01:12:44;;;;;;;12.40;8.70;;;;;;;;;;6152133;28;20138;-68
2021/09/10 01:15:47;;;;;;;14.73;8.77;;;;;;;;;;6142244;28;20050;-69
2021/09/10 01:18:49;;;;;;;;;;;;;;;;;;6164536;28;20105;-68
2021/09/10 01:21:52;;;;;;;12.90;8.35;;;;;;;;;;6158084;28;20017;-68
2021/09/10 01:25:11;;;;;;;11.98;8.50;;;;;;;;;;6164608;28;20105;-69
2021/09/10 01:28:12;;;;;;;12.07;7.75;;;;;;;;;;6161398;28;20047;-69
2021/09/10 01:31:14;;;;;;;10.38;8.20;;;;;;;;;;6156123;28;20237;-69
2021/09/10 01:34:16;;;;;;;10.13;8.30;;;;;;;;;;6160057;28;20050;-69
2021/09/10 01:37:17;;;;;;;12.85;8.68;;;;;;;;;;6156973;28;20590;-68
2021/09/10 01:40:20;;;;;;;11.27;8.60;;;;;;;;;;6160357;28;20517;-68
2021/09/10 01:43:22;;;;;;;9.73;7.60;;;;;;;;;;6163041;28;20139;-68
2021/09/10 01:46:23;;;;;;;11.30;8.32;;;;;;;;;;6157338;28;20297;-68
2021/09/10 01:49:25;;;;;;;12.43;8.55;;;;;;;;;;6159965;28;20153;-68
2021/09/10 01:52:26;;;;;;;11.85;8.02;;;;;;;;;;6153875;28;20193;-68
2021/09/10 01:55:32;;;;;;;9.20;8.05;;;;;;;;;;6161141;28;20129;-68
2021/09/10 01:58:34;;;;;;;9.95;7.82;;;;;;;;;;6168228;28;20053;-68
2021/09/10 02:01:35;;;;;;;10.55;8.27;;;;;;;;;;6148010;28;20545;-67
2021/09/10 02:04:37;;;;;;;8.48;7.53;;;;;;;;;;6152195;28;20644;-70
2021/09/10 02:07:39;;;;;;;8.95;7.38;;;;;;;;;;6151727;28;20070;-70
2021/09/10 02:10:42;;;;;;;13.05;7.72;;;;;;;;;;6158454;28;20055;-69
2021/09/10 02:13:44;;;;;;;12.57;8.77;;;;;;;;;;6165629;28;20077;-70
2021/09/10 02:16:45;;;;;;;10.63;8.38;;;;;;;;;;6153771;28;20392;-70
2021/09/10 02:19:47;;;;;;;12.23;8.82;;;;;;;;;;6166927;28;20047;-70
2021/09/10 02:22:48;;;;;;;11.27;7.97;;;;;;;;;;6156752;28;20059;-68
2021/09/10 02:25:51;;;;;;;11.85;8.65;;;;;;;;;;6161346;28;20047;-68
2021/09/10 02:28:53;;;;;;;8.50;7.25;;;;;;;;;;6164653;28;20051;-67
2021/09/10 02:31:55;;;;;;;10.02;7.72;;;;;;;;;;6157509;28;20138;-68
2021/09/10 02:34:56;;;;;;;15.07;8.18;;;;;;;;;;6165623;28;20508;-68
2021/09/10 02:37:58;;;;;;;10.02;7.75;;;;;;;;;;6156748;28;20070;-68
2021/09/10 02:41:01;;;;;;;10.25;8.23;;;;;;;;;;6162898;28;20146;-68
2021/09/10 02:44:03;;;;;;;12.35;8.55;;;;;;;;;;6168634;28;20065;-68
2021/09/10 02:47:04;;;;;;;10.27;7.90;;;;;;;;;;6153235;28;20503;-68
2021/09/10 02:50:07;;;;;;;11.05;8.40;;;;;;;;;;6159664;28;20606;-69
2021/09/10 02:53:09;;;;;;;9.20;8.15;;;;;;;;;;6158531;28;20097;-67
2021/09/10 02:56:12;;;;;;;14.00;8.32;;;;;;;;;;6160694;28;20047;-67
2021/09/10 02:59:13;;;;;;;13.00;8.50;;;;;;;;;;6160577;28;20129;-68
2021/09/10 03:02:15;;;;;;;11.48;8.27;;;;;;;;;;6150022;28;20055;-69
2021/09/10 03:05:17;;;;;;;13.73;8.23;;;;;;;;;;6161126;28;20129;-69
2021/09/10 03:08:18;;;;;;;12.30;9.35;;;;;;;;;;6162412;28;20159;-68
2021/09/10 03:11:21;;;;;;;12.65;8.25;;;;;;;;;;6159898;28;20100;-67
2021/09/10 03:14:23;;;;;;;9.05;7.93;;;;;;;;;;6166308;28;20059;-67
2021/09/10 03:17:24;;;;;;;13.68;8.85;;;;;;;;;;6157207;28;20125;-67
2021/09/10 03:20:26;;;;;;;12.70;8.80;;;;;;;;;;6157707;28;20521;-68
2021/09/10 03:23:27;;;;;;;11.70;9.32;;;;;;;;;;6163235;28;20092;-67
2021/09/10 03:26:30;;;;;;;12.23;8.18;;;;;;;;;;6153768;28;20118;-66
2021/09/10 03:29:32;;;;;;;9.43;8.27;;;;;;;;;;6167230;28;20086;-67
2021/09/10 03:32:34;;;;;;;12.30;8.05;;;;;;;;;;6148338;28;20051;-68
2021/09/10 03:35:35;;;;;;;9.23;7.82;;;;;;;;;;6149488;28;20220;-67
2021/09/10 03:38:37;;;;;;;15.27;8.35;;;;;;;;;;6159594;28;20062;-67
2021/09/10 03:41:40;;;;;;;13.63;8.70;;;;;;;;;;6155704;28;20133;-67
2021/09/10 03:44:42;;;;;;;12.85;7.90;;;;;;;;;;6162219;28;20149;-67
2021/09/10 03:47:43;;;;;;;10.50;7.93;;;;;;;;;;6150627;28;20234;-68
2021/09/10 03:50:45;;;;;;;9.50;8.18;;;;;;;;;;6155322;28;20185;-66
2021/09/10 03:53:46;;;;;;;11.13;7.80;;;;;;;;;;6162394;28;20541;-68
2021/09/10 03:56:49;;;;;;;13.45;8.90;;;;;;;;;;6156486;28;20101;-69
2021/09/10 03:59:51;;;;;;;10.68;8.63;;;;;;;;;;6166137;28;20069;-68
2021/09/10 04:02:52;;;;;;;10.10;8.02;;;;;;;;;;6148290;28;20051;-68
2021/09/10 04:05:54;;;;;;;10.75;7.85;;;;;;;;;;6154945;28;20049;-69
2021/09/10 04:08:55;;;;;;;11.48;7.88;;;;;;;;;;6160593;28;20058;-69
2021/09/10 04:11:58;;;;;;;11.18;7.43;;;;;;;;;;6159226;28;20074;-68
2021/09/10 04:15:00;;;;;;;10.73;7.97;;;;;;;;;;6165606;28;20130;-68
2021/09/10 04:18:02;;;;;;;10.48;7.68;;;;;;;;;;6151806;28;20118;-69
2021/09/10 04:21:04;;;;;;;10.93;7.85;;;;;;;;;;6156343;28;20474;-69
2021/09/10 04:24:05;;;;;;;16.05;7.40;;;;;;;;;;6159991;28;20053;-69
2021/09/10 04:27:08;;;;;;;8.82;7.43;;;;;;;;;;6159563;28;20430;-69
2021/09/10 04:30:11;;;;;;;11.80;7.32;;;;;;;;;;6163811;28;20470;-71
2021/09/10 04:33:13;;;;;;;10.55;7.75;;;;;;;;;;6151684;28;20121;-70
2021/09/10 04:36:15;;;;;;;11.30;7.68;;;;;;;;;;6155957;28;20046;-69
2021/09/10 04:39:16;;;;;;;11.60;7.40;;;;;;;;;;6164832;28;20139;-68
2021/09/10 04:42:19;;;;;;;8.80;7.25;;;;;;;;;;6149103;28;21165;-67
2021/09/10 04:45:22;;;;;;;14.15;7.80;;;;;;;;;;6158139;28;20138;-68
2021/09/10 04:48:24;;;;;;;11.32;7.82;;;;;;;;;;6151206;28;20392;-67
2021/09/10 04:51:28;;;;;;;13.02;7.50;;;;;;;;;;6153430;28;20050;-67
2021/09/10 04:54:30;;;;;;;17.08;8.27;;;;;;;;;;6159671;28;20097;-67
2021/09/10 04:57:32;;;;;;;15.32;7.47;;;;;;;;;;6153639;28;20482;-67
2021/09/10 05:00:34;;;;;;;12.25;8.60;;;;;;;;;;6153230;28;20186;-68
2021/09/10 05:03:36;;;;;;;10.13;7.68;;;;;;;;;;6155114;28;20137;-67
2021/09/10 05:06:37;;;;;;;9.95;7.47;;;;;;;;;;6155291;28;20046;-67
2021/09/10 05:09:39;;;;;;;11.20;7.13;;;;;;;;;;6159851;28;20051;-67
2021/09/10 05:12:42;;;;;;;10.50;7.47;;;;;;;;;;6153058;28;20055;-67
2021/09/10 05:15:44;;;;;;;9.43;7.72;;;;;;;;;;6154535;28;20043;-67
2021/09/10 05:18:45;;;;;;;10.30;7.45;;;;;;;;;;6158779;28;20043;-67
2021/09/10 05:21:47;;;;;;;12.50;7.85;;;;;;;;;;6155320;28;20549;-67
2021/09/10 05:24:48;;;;;;;10.98;8.15;;;;;;;;;;6162486;28;20603;-68
2021/09/10 05:27:52;;;;;;;13.55;8.73;;;;;;;;;;6155990;28;20177;-68
2021/09/10 05:30:53;;;;;;;;;;;;;;;;;;6157785;28;20066;-67
2021/09/10 05:33:55;;;;;;;15.10;7.50;;;;;;;;;;6157996;28;20024;-67
2021/09/10 05:36:56;;;;;;;9.70;7.80;;;;;;;;;;6153973;28;20166;-67
2021/09/10 05:39:58;;;;;;;14.93;8.43;;;;;;;;;;6158019;28;20055;-67
2021/09/10 05:43:01;;;;;;;15.18;8.18;;;;;;;;;;6156693;28;20047;-67
2021/09/10 05:46:03;;;;;;;9.68;7.68;;;;;;;;;;6153531;28;20530;-67
2021/09/10 05:49:04;;;;;;;16.55;8.55;;;;;;;;;;6159910;28;20507;-67
2021/09/10 05:52:09;;;;;;;11.93;9.13;;;;;;;;;;6154073;28;20051;-67
2021/09/10 05:55:12;;;;;;;12.27;8.90;;;;;;;;;;6159519;28;20062;-68
2021/09/10 05:58:15;;;;;;;12.05;8.73;;;;;;;;;;6157723;28;20047;-67
2021/09/10 06:01:16;;;;;;;10.85;7.95;;;;;;;;;;6147107;28;20863;-66
2021/09/10 06:04:18;;;;;;;12.85;8.32;;;;;;;;;;6151305;28;20063;-69
2021/09/10 06:07:19;;;;;;;11.25;8.60;;;;;;;;;;6149393;28;20126;-69
2021/09/10 06:10:21;;;;;;;14.00;9.65;;;;;;;;;;6155367;28;20125;-68
2021/09/10 06:13:24;;;;;;;15.30;8.88;;;;;;;;;;6162230;28;20479;-69
2021/09/10 06:16:26;;;;;;;13.07;9.00;;;;;;;;;;6155349;28;20582;-67
2021/09/10 06:19:28;;;;;;;12.02;8.55;;;;;;;;;;6163655;28;20086;-69
2021/09/10 06:22:30;;;;;;;14.05;8.30;;;;;;;;;;6156782;28;20047;-69
2021/09/10 06:25:32;;;;;;;14.18;8.40;;;;;;;;;;6160112;28;20129;-63
2021/09/10 06:28:35;;;;;;;21.67;9.38;;;;;;;;;;6162585;28;20054;-68
2021/09/10 06:31:36;;;;;;;16.95;8.70;;;;;;;;;;6145626;28;20086;-69
2021/09/10 06:34:38;;;;;;;14.98;9.20;;;;;;;;;;6161250;28;20373;-68
2021/09/10 06:37:40;;;;;;;12.27;8.63;;;;;;;;;;6154301;28;20046;-68
2021/09/10 06:40:41;;;;;;;17.00;8.82;;;;;;;;;;6157463;28;20475;-68
2021/09/10 06:43:44;;;;;;;17.63;9.88;;;;;;;;;;6165398;28;20067;-68
2021/09/10 06:46:46;;;;;;;16.38;9.48;;;;;;;;;;6142401;28;20145;-68
2021/09/10 06:49:48;;;;;;;16.10;9.82;;;;;;;;;;6164005;28;20094;-69
2021/09/10 06:52:50;;;;;;;16.40;9.68;;;;;;;;;;6152056;28;20078;-69
2021/09/10 06:55:51;;;;;;;19.65;9.60;;;;;;;;;;6153279;28;20122;-67
2021/09/10 06:58:55;;;;;;;17.92;9.65;;;;;;;;;;6166779;28;20141;-69
2021/09/10 07:01:56;;;;;;;15.00;10.77;;;;;;;;;;6142661;28;20153;-68
2021/09/10 07:04:58;;;;;;;13.80;10.95;;;;;;;;;;6162948;28;20055;-71
2021/09/10 07:08:00;;;;;;;14.75;10.32;;;;;;;;;;6151123;28;20136;-68
2021/09/10 07:11:03;;;;;;;14.13;10.80;;;;;;;;;;6154994;28;20091;-68
2021/09/10 07:14:06;;;;;;;;;;;;;;;;;;6163538;28;20062;-68
2021/09/10 07:17:08;;;;;;;16.10;10.70;;;;;;;;;;6144623;28;19973;-71
2021/09/10 07:20:11;;;;;;;17.67;11.40;;;;;;;;;;6158281;28;20100;-69
2021/09/10 07:23:12;;;;;;;19.63;11.15;;;;;;;;;;6160626;28;20046;-68
2021/09/10 07:26:14;;;;;;;24.45;12.10;;;;;;;;;;6152724;28;20461;-68
2021/09/10 07:29:19;;;;;;;13.93;10.82;;;;;;;;;;6166002;28;20067;-69
2021/09/10 07:32:21;;;;;;;18.58;11.30;;;;;;;;;;6140031;28;20043;-68
2021/09/10 07:35:22;;;;;;;16.45;11.75;;;;;;;;;;6153264;28;22488;-71
2021/09/10 07:38:24;;;;;;;17.95;11.20;;;;;;;;;;6162663;28;20065;-68
2021/09/10 07:41:26;;;;;;;17.95;12.48;;;;;;;;;;6155696;28;20050;-69
2021/09/10 07:44:29;;;;;;;20.90;12.70;;;;;;;;;;6165407;28;20091;-68
2021/09/10 07:47:31;;;;;;;18.45;12.15;;;;;;;;;;6143516;28;20059;-69
2021/09/10 07:50:32;;;;;;;19.42;12.27;;;;;;;;;;6152940;28;20554;-68
2021/09/10 07:53:34;;;;;;;25.48;12.60;;;;;;;;;;6164988;28;20050;-68
2021/09/10 07:56:36;;;;;;;17.45;11.57;;;;;;;;;;6156292;28;20882;-68
2021/09/10 07:59:39;;;;;;;16.47;12.47;;;;;;;;;;6165471;28;20503;-69
2021/09/10 08:02:41;;;;;;;;;;;;;;;;;;6146931;28;20051;-69
2021/09/10 08:05:42;;;;;;;20.85;12.38;;;;;;;;;;6149685;28;20442;-69
2021/09/10 08:08:44;;;;;;;19.90;12.73;;;;;;;;;;6162201;28;20051;-68
2021/09/10 08:11:46;;;;;;;15.45;11.00;;;;;;;;;;6154861;28;20066;-68
2021/09/10 08:14:49;;;;;;;17.35;10.88;;;;;;;;;;6164683;28;20062;-68
2021/09/10 08:17:51;;;;;;;15.82;11.30;;;;;;;;;;6141136;28;20526;-69
2021/09/10 08:20:55;;;;;;;18.27;12.45;;;;;;;;;;6155023;28;20404;-69
2021/09/10 08:23:57;;;;;;;18.98;12.20;;;;;;;;;;6161637;28;20440;-70
2021/09/10 08:26:59;;;;;;;14.75;10.23;;;;;;;;;;6151297;28;20075;-68
2021/09/10 08:30:02;;;;;;;10.95;9.45;;;;;;;;;;6163047;28;20047;-69
2021/09/10 08:33:09;;;;;;;18.20;9.52;;;;;;;;;;6148838;28;20055;-69
2021/09/10 08:36:11;;;;;;;15.77;9.52;;;;;;;;;;6152788;28;20092;-68
2021/09/10 08:39:13;;;;;;;12.93;9.73;;;;;;;;;;6161403;28;20105;-69
2021/09/10 08:42:15;;;;;;;12.65;8.88;;;;;;;;;;6154451;28;20093;-70
2021/09/10 08:45:18;;;;;;;9.00;7.67;;;;;;;;;;6149675;28;20065;-72
2021/09/10 08:48:20;;;;;;;12.23;8.35;;;;;;;;;;6154442;28;20460;-73
2021/09/10 08:51:22;;;;;;;13.98;8.43;;;;;;;;;;6153943;28;20047;-70
2021/09/10 08:54:23;;;;;;;10.88;6.90;;;;;;;;;;6160085;28;20522;-68
2021/09/10 08:57:26;;;;;;;8.88;7.80;;;;;;;;;;6154196;28;20137;-69
2021/09/10 09:00:32;;;;;;;14.68;7.78;;;;;;;;;;6157012;28;20067;-70
2021/09/10 09:03:34;;;;;;;11.20;7.90;;;;;;;;;;6157008;28;20585;-68
2021/09/10 09:06:36;;;;;;;;;;;;;;;;;;6150966;28;20069;-69
2021/09/10 09:09:40;;;;;;;13.40;9.82;;;;;;;;;;6158231;28;19980;-68
2021/09/10 09:12:41;;;;;;;13.02;9.18;;;;;;;;;;6154454;28;20050;-68
2021/09/10 09:15:45;;;;;;;14.10;8.48;;;;;;;;;;6145709;28;20436;-70
2021/09/10 09:18:48;;;;;;;10.90;8.40;;;;;;;;;;6157808;28;20051;-70
2021/09/10 09:21:58;;;;;;;11.65;8.27;;;;;;;;;;6150185;28;20190;-68
2021/09/10 09:25:08;;;;;;;11.55;7.90;;;;;;;;;;6163337;28;20046;-69
2021/09/10 09:28:21;;;;;;;12.07;8.75;;;;;;;;;;6156388;28;20407;-68
2021/09/10 09:31:26;;;;;;;11.93;8.55;;;;;;;;;;6150273;28;20043;-68
2021/09/10 09:34:44;;;;;;;16.80;9.20;;;;;;;;;;6156018;28;20137;-68
2021/09/10 09:37:46;;;;;;;10.10;8.90;;;;;;;;;;6154170;28;20075;-69
2021/09/10 09:40:52;;;;;;;15.37;8.47;;;;;;;;;;6158642;28;20084;-68
2021/09/10 09:44:03;;;;;;;12.20;8.52;;;;;;;;;;6162871;28;21770;-68
2021/09/10 09:47:06;;;;;;;12.02;7.55;;;;;;;;;;6137066;28;20055;-68
2021/09/10 09:50:09;;;;;;;10.15;7.88;;;;;;;;;;6160051;28;20058;-72
2021/09/10 09:53:12;;;;;;;11.02;8.27;;;;;;;;;;6159268;28;20094;-73
2021/09/10 09:56:14;;;;;;;12.95;7.07;;;;;;;;;;6156410;28;20050;-68
2021/09/10 09:59:16;;;;;;;8.98;7.88;;;;;;;;;;6165518;28;20047;-69
2021/09/10 10:02:20;;;;;;;13.65;7.10;;;;;;;;;;6151298;28;20517;-72
2021/09/10 10:05:21;;;;;;;10.05;7.63;;;;;;;;;;6144474;28;20054;-74
2021/09/10 10:08:25;;;;;;;14.13;7.90;;;;;;;;;;6160854;28;20055;-69
2021/09/10 10:11:32;;;;;;;10.60;7.00;;;;;;;;;;6130941;28;20051;-69
2021/09/10 10:14:36;;;;;;;10.07;7.22;;;;;;;;;;6159776;28;20104;-69
2021/09/10 10:17:40;;;;;;;7.55;6.18;;;;;;;;;;6142615;28;20070;-69
2021/09/10 10:20:51;;;;;;;12.60;7.35;;;;;;;;;;6150453;28;20458;-68
2021/09/10 10:23:56;;;;;;;9.98;6.75;;;;;;;;;;6152861;28;20058;-70
2021/09/10 10:27:30;;;;;;;10.60;6.53;;;;;;;;;;6144885;28;20717;-68
2021/09/10 10:30:49;;;;;;;10.57;5.82;;;;;;;;;;6161856;28;20047;-71
2021/09/10 10:34:06;;;;;;;7.68;6.80;;;;;;;;;;6155867;28;20061;-68
2021/09/10 10:37:38;;;;;;;11.50;6.72;;;;;;;;;;6149554;28;20047;-68
2021/09/10 10:40:40;;;;;;;7.63;6.07;;;;;;;;;;6130211;28;20042;-68
2021/09/10 10:43:42;;;;;;;11.57;6.30;;;;;;;;;;6162955;28;20518;-68
2021/09/10 10:46:43;;;;;;;9.05;6.43;;;;;;;;;;6144094;28;20177;-69
2021/09/10 10:49:48;;;;;;;11.03;5.97;;;;;;;;;;6157954;28;20078;-68
2021/09/10 10:52:56;;;;;;;12.43;6.35;;;;;;;;;;6146643;28;20043;-68
2021/09/10 10:55:57;;;;;;;13.85;6.75;;;;;;;;;;6148353;28;20046;-69
2021/09/10 10:59:29;;;;;;;9.57;6.63;;;;;;;;;;6162979;28;20102;-70
2021/09/10 11:02:35;;;;;;;9.35;6.68;;;;;;;;;;6146687;28;20054;-69
2021/09/10 11:05:38;;;;;;;16.13;7.30;;;;;;;;;;6151802;28;20050;-68
2021/09/10 11:08:42;;;;;;;9.50;7.72;;;;;;;;;;6162902;28;20053;-67
2021/09/10 11:11:44;;;;;;;12.70;7.30;;;;;;;;;;6155076;28;20047;-69
2021/09/10 11:14:45;;;;;;;11.98;7.00;;;;;;;;;;6163871;28;20387;-70
2021/09/10 11:17:58;;;;;;;11.60;7.68;;;;;;;;;;6151855;28;20102;-69
2021/09/10 11:21:05;;;;;;;9.20;7.00;;;;;;;;;;6153847;28;20194;-71
2021/09/10 11:24:08;;;;;;;16.33;7.85;;;;;;;;;;6165437;28;20083;-67
2021/09/10 11:27:23;;;;;;;9.15;6.82;;;;;;;;;;6153832;28;20050;-67
2021/09/10 11:30:29;;;;;;;11.05;7.20;;;;;;;;;;6155237;28;20125;-70
2021/09/10 11:33:40;;;;;;;10.00;7.28;;;;;;;;;;6152722;28;20093;-68
2021/09/10 11:36:43;;;;;;;10.93;6.68;;;;;;;;;;6153217;28;20051;-69
2021/09/10 11:39:45;;;;;;;8.82;7.80;;;;;;;;;;6161536;28;20150;-69
2021/09/10 11:42:47;;;;;;;11.10;6.85;;;;;;;;;;6153769;28;20039;-70
2021/09/10 11:45:50;;;;;;;9.77;6.23;;;;;;;;;;6148188;28;20137;-68
2021/09/10 11:48:53;;;;;;;18.58;7.07;;;;;;;;;;6155031;28;20474;-69
2021/09/10 11:51:57;;;;;;;8.98;5.95;;;;;;;;;;6149932;28;20054;-69
2021/09/10 11:55:13;;;;;;;7.10;6.32;;;;;;;;;;6156320;28;20054;-69
2021/09/10 11:58:14;;;;;;;17.58;6.63;;;;;;;;;;6150291;28;20539;-69
2021/09/10 12:01:20;;;;;;;9.32;6.05;;;;;;;;;;6146723;28;20137;-69
2021/09/10 12:04:27;;;;;;;12.32;6.05;;;;;;;;;;6160200;28;20148;-69
2021/09/10 12:07:31;;;;;;;8.93;5.78;;;;;;;;;;6145447;28;20073;-74
2021/09/10 12:10:34;;;;;;;10.77;6.97;;;;;;;;;;6145904;28;20134;-74
2021/09/10 12:13:35;;;;;;;9.95;7.20;;;;;;;;;;6158362;28;20082;-70
2021/09/10 12:16:37;;;;;;;12.80;7.07;;;;;;;;;;6116954;28;20720;-70
2021/09/10 12:19:49;;;;;;;12.00;6.38;;;;;;;;;;6162626;28;20045;-69
2021/09/10 12:22:56;;;;;;;10.48;6.05;;;;;;;;;;6154123;28;20380;-69
2021/09/10 12:26:02;;;;;;;8.50;6.25;;;;;;;;;;6154277;28;20059;-69
2021/09/10 12:29:06;;;;;;;7.22;5.28;;;;;;;;;;6161857;28;20605;-69
2021/09/10 12:32:07;;;;;;;12.00;6.43;;;;;;;;;;6152286;28;20091;-68
2021/09/10 12:35:10;;;;;;;17.08;6.28;;;;;;;;;;6154364;28;20066;-75
2021/09/10 12:38:15;;;;;;;9.75;7.13;;;;;;;;;;6147604;28;20603;-73
2021/09/10 12:41:16;;;;;;;7.70;5.90;;;;;;;;;;6148902;28;20054;-70
2021/09/10 12:44:18;;;;;;;9.85;6.65;;;;;;;;;;6157183;28;20069;-69
2021/09/10 12:47:20;;;;;;;10.18;6.75;;;;;;;;;;6152523;28;20054;-69
2021/09/10 12:50:22;;;;;;;7.88;6.75;;;;;;;;;;6159191;28;20152;-73
2021/09/10 12:53:25;;;;;;;;;;;;;;;;;;6161491;28;20058;-69
2021/09/10 12:56:27;;;;;;;10.00;6.45;;;;;;;;;;6155651;28;19929;-72
2021/09/10 12:59:28;;;;;;;9.43;6.93;;;;;;;;;;6164190;28;20047;-68
2021/09/10 13:02:30;;;;;;;10.07;7.53;;;;;;;;;;6147879;28;20043;-68
2021/09/10 13:05:32;;;;;;;10.63;6.93;;;;;;;;;;6150271;28;20466;-72
2021/09/10 13:08:35;;;;;;;8.48;7.53;;;;;;;;;;6161669;28;20043;-70
2021/09/10 13:11:36;;;;;;;10.85;7.45;;;;;;;;;;6158752;28;20055;-71
2021/09/10 13:14:38;;;;;;;9.73;7.00;;;;;;;;;;6163917;28;20141;-69
2021/09/10 13:17:40;;;;;;;9.27;7.70;;;;;;;;;;6140515;28;20185;-69
2021/09/10 13:20:42;;;;;;;12.88;7.88;;;;;;;;;;6158040;28;20066;-69
2021/09/10 13:23:45;;;;;;;12.80;7.53;;;;;;;;;;6138928;28;20821;-69
2021/09/10 13:26:47;;;;;;;10.25;8.07;;;;;;;;;;6146309;28;20043;-69
2021/09/10 13:29:49;;;;;;;10.07;7.22;;;;;;;;;;6162558;28;20493;-72
2021/09/10 13:32:51;;;;;;;11.85;8.15;;;;;;;;;;6145449;28;20049;-69
2021/09/10 13:35:53;;;;;;;9.25;7.22;;;;;;;;;;6148228;28;20047;-69
2021/09/10 13:38:56;;;;;;;10.57;7.30;;;;;;;;;;6159056;28;20491;-69
2021/09/10 13:41:59;;;;;;;8.50;7.32;;;;;;;;;;6150890;28;20544;-69
2021/09/10 13:45:01;;;;;;;14.70;7.40;;;;;;;;;;6162162;28;20054;-69
2021/09/10 13:48:03;;;;;;;11.43;7.57;;;;;;;;;;6139779;28;20069;-69
2021/09/10 13:51:07;;;;;;;11.70;6.95;;;;;;;;;;6150289;28;20530;-69
2021/09/10 13:54:10;;;;;;;14.32;7.15;;;;;;;;;;6160382;28;20475;-69
2021/09/10 13:57:12;;;;;;;9.38;7.10;;;;;;;;;;6148563;28;20051;-71
2021/09/10 14:00:14;;;;;;;14.93;7.82;;;;;;;;;;6153680;28;20094;-71
2021/09/10 14:03:16;;;;;;;13.73;7.47;;;;;;;;;;6146629;28;20048;-68
2021/09/10 14:06:18;;;;;;;11.50;7.73;;;;;;;;;;6144807;28;20145;-68
2021/09/10 14:09:21;;;;;;;19.38;7.25;;;;;;;;;;6154227;28;20478;-68
2021/09/10 14:12:23;;;;;;;10.13;6.97;;;;;;;;;;6150441;28;20058;-68
2021/09/10 14:15:24;;;;;;;12.88;7.35;;;;;;;;;;6140981;28;20285;-71
2021/09/10 14:18:27;;;;;;;13.40;7.73;;;;;;;;;;6146209;28;20058;-69
2021/09/10 14:21:28;;;;;;;15.10;7.30;;;;;;;;;;6152128;28;20531;-68
2021/09/10 14:24:31;;;;;;;16.02;8.60;;;;;;;;;;6158465;28;20482;-69
2021/09/10 14:27:33;;;;;;;17.77;7.90;;;;;;;;;;6153996;28;20555;-67
2021/09/10 14:30:34;;;;;;;13.68;7.70;;;;;;;;;;6148537;28;20121;-70
2021/09/10 14:33:37;;;;;;;12.00;7.50;;;;;;;;;;6152371;28;20088;-69
2021/09/10 14:36:40;;;;;;;13.48;7.97;;;;;;;;;;6147635;28;20054;-68
2021/09/10 14:39:43;;;;;;;14.27;9.65;;;;;;;;;;6157905;28;20055;-68
2021/09/10 14:42:45;;;;;;;23.00;8.73;;;;;;;;;;6148017;28;20498;-72
2021/09/10 14:45:46;;;;;;;19.63;8.95;;;;;;;;;;6140795;28;20119;-72
2021/09/10 14:48:50;;;;;;;20.50;9.27;;;;;;;;;;6151548;28;20125;-76
2021/09/10 14:51:52;;;;;;;32.40;9.75;;;;;;;;;;6148667;28;20062;-69
2021/09/10 14:54:55;;;;;;;17.30;8.40;;;;;;;;;;6150955;28;20117;-68
2021/09/10 14:57:59;;;;;;;17.20;9.13;;;;;;;;;;6149917;28;20043;-70
2021/09/10 15:01:02;;;;;;;19.45;7.72;;;;;;;;;;6143905;28;20059;-69
2021/09/10 15:04:04;;;;;;;20.38;7.78;;;;;;;;;;6153392;28;20122;-69
2021/09/10 15:07:06;;;;;;;11.60;7.50;;;;;;;;;;6149962;28;20074;-71
2021/09/10 15:10:11;;;;;;;12.88;7.30;;;;;;;;;;6153685;28;20063;-77
2021/09/10 15:13:13;;;;;;;13.02;7.65;;;;;;;;;;6151115;28;20083;-69
2021/09/10 15:16:15;;;;;;;11.10;8.43;;;;;;;;;;6141214;28;20074;-69
2021/09/10 15:19:16;;;;;;;13.30;8.03;;;;;;;;;;6152251;28;20047;-73
2021/09/10 15:22:18;;;;;;;22.10;9.07;;;;;;;;;;6142577;28;20039;-72
2021/09/10 15:25:22;;;;;;;26.38;8.98;;;;;;;;;;6152168;28;20055;-74
2021/09/10 15:28:23;;;;;;;19.00;8.90;;;;;;;;;;6157980;28;20130;-69
2021/09/10 15:31:25;;;;;;;12.70;8.93;;;;;;;;;;6151279;28;20046;-71
2021/09/10 15:34:27;;;;;;;13.60;9.05;;;;;;;;;;6158322;28;20057;-68
2021/09/10 15:37:29;;;;;;;23.08;9.52;;;;;;;;;;6154016;28;20135;-74
2021/09/10 15:40:32;;;;;;;21.38;8.70;;;;;;;;;;6156051;28;20058;-79
2021/09/10 15:43:34;;;;;;;15.85;7.97;;;;;;;;;;6141224;28;20137;-71
2021/09/10 15:46:36;;;;;;;18.20;8.70;;;;;;;;;;6140824;28;20066;-74
2021/09/10 15:49:37;;;;;;;11.60;8.25;;;;;;;;;;6152939;28;20042;-70
2021/09/10 15:52:39;;;;;;;14.90;7.97;;;;;;;;;;6141093;28;20582;-70
2021/09/10 15:55:42;;;;;;;11.43;7.70;;;;;;;;;;6149515;28;20066;-70
2021/09/10 15:58:44;;;;;;;16.38;8.73;;;;;;;;;;6160353;28;20525;-70
2021/09/10 16:01:46;;;;;;;16.40;8.13;;;;;;;;;;6151141;28;20124;-70
2021/09/10 16:04:47;;;;;;;35.53;10.15;;;;;;;;;;6156477;28;20134;-70
2021/09/10 16:07:49;;;;;;;27.92;8.30;;;;;;;;;;6142646;28;20051;-70
2021/09/10 16:10:53;;;;;;;13.85;8.48;;;;;;;;;;6156604;28;20043;-70
2021/09/10 16:13:57;;;;;;;13.45;8.07;;;;;;;;;;6160484;28;20039;-69
2021/09/10 16:16:58;;;;;;;18.67;9.02;;;;;;;;;;6139012;28;20058;-72
2021/09/10 16:20:00;;;;;;;21.65;8.38;;;;;;;;;;6152676;28;20042;-73
2021/09/10 16:23:02;;;;;;;12.98;7.72;;;;;;;;;;6146321;28;20055;-72
2021/09/10 16:26:05;;;;;;;18.27;7.45;;;;;;;;;;6135065;28;20047;-72
2021/09/10 16:29:06;;;;;;;17.98;8.38;;;;;;;;;;6157896;28;20046;-71
2021/09/10 16:32:08;;;;;;;11.48;7.93;;;;;;;;;;6149071;28;20133;-71
2021/09/10 16:35:11;;;;;;;13.20;7.68;;;;;;;;;;6157003;28;20047;-71
2021/09/10 16:38:13;;;;;;;34.45;9.57;;;;;;;;;;6153776;28;20066;-71
2021/09/10 16:41:18;;;;;;;17.95;8.02;;;;;;;;;;6156593;28;20054;-72
2021/09/10 16:44:20;;;;;;;13.68;7.05;;;;;;;;;;6154469;28;20542;-74
2021/09/10 16:47:22;;;;;;;22.38;8.80;;;;;;;;;;6135591;28;20061;-70
2021/09/10 16:50:24;;;;;;;25.10;8.27;;;;;;;;;;6147009;28;20053;-71
2021/09/10 16:53:26;;;;;;;11.70;7.13;;;;;;;;;;6149765;28;20063;-70
2021/09/10 16:56:29;;;;;;;8.73;6.88;;;;;;;;;;6146103;28;20126;-71
2021/09/10 16:59:31;;;;;;;12.77;8.15;;;;;;;;;;6154006;28;20055;-68
2021/09/10 17:02:33;;;;;;;18.15;8.30;;;;;;;;;;6145161;28;20053;-69
2021/09/10 17:05:35;;;;;;;40.08;8.73;;;;;;;;;;6151512;28;20961;-69
2021/09/10 17:08:36;;;;;;;23.38;8.88;;;;;;;;;;6158814;28;20407;-69
2021/09/10 17:11:39;;;;;;;27.45;8.90;;;;;;;;;;6158927;28;20043;-70
2021/09/10 17:14:41;;;;;;;30.63;9.05;;;;;;;;;;6158903;28;20046;-69
2021/09/10 17:17:43;;;;;;;13.40;7.15;;;;;;;;;;6145668;28;21642;-69
2021/09/10 17:20:45;;;;;;;10.10;7.22;;;;;;;;;;6152475;28;20046;-69
2021/09/10 17:23:47;;;;;;;12.60;8.30;;;;;;;;;;6160756;28;20044;-69
2021/09/10 17:26:50;;;;;;;18.25;8.63;;;;;;;;;;6156909;28;20130;-69
2021/09/10 17:29:51;;;;;;;11.57;7.22;;;;;;;;;;6165605;28;20054;-68
2021/09/10 17:32:53;;;;;;;16.35;8.73;;;;;;;;;;6150425;28;20047;-68
2021/09/10 17:35:55;;;;;;;13.48;7.60;;;;;;;;;;6147619;28;20194;-69
2021/09/10 17:38:57;;;;;;;12.35;8.05;;;;;;;;;;6162377;28;20399;-69
2021/09/10 17:41:59;;;;;;;10.70;7.95;;;;;;;;;;6148657;28;20055;-70
2021/09/10 17:45:01;;;;;;;;;;;;;;;;;;6159540;28;20046;-68
2021/09/10 17:48:03;;;;;;;18.48;8.25;;;;;;;;;;6145425;28;19930;-69
2021/09/10 17:51:04;;;;;;;12.80;8.32;;;;;;;;;;6149389;28;20133;-69
2021/09/10 17:54:08;;;;;;;9.50;8.23;;;;;;;;;;6160239;28;20102;-68
2021/09/10 17:57:11;;;;;;;12.10;8.27;;;;;;;;;;6156731;28;20074;-67
2021/09/10 18:00:13;;;;;;;;;;;;;;;;;;6165392;28;20055;-75
2021/09/10 18:03:14;;;;;;;11.52;7.80;;;;;;;;;;6153723;28;20009;-73
2021/09/10 18:06:16;;;;;;;9.70;7.85;;;;;;;;;;6151750;28;20044;-68